收起/展开 收藏本版 (33) |订阅

www.ydgw.cn 今日: 44045 |主题: 48315|排名: 68684 

版主: 纯卓宗


1,问题涉及到的网站可以提供地址,并概述清楚问题重点。
2、请不要无意义回复或者灌水,违规者一经确认,将作删帖、禁言处理。
3、禁发各种形式的广告;发布任何非官方QQ群招募帖、出售、求购、均视为广告帖,将被作为广告帖处理。

24小时热帖

作者 回复/查看 最后发表
公告 x女特工百度影音奇热网 公告: 特朗普:将于5月或6月初与金正恩碰面_潘罗网wvk8 董成 04-21    
全局置顶 掌玩斗士提供 隐藏置顶帖 预览 波兰公布致总统匹俦罹难斯摩棱斯克空难观察陈诉:飞机内部爆炸_潘罗网wvk8,潘罗网wvk8  ...2 纯陵辛 04-20 8861414994 华杜公 2018-04-22 00:18:58
全局置顶 恸哭临素帷 隐藏置顶帖 预览 《潘罗网wvk8》金正恩:朝韩首脑会晤将于27日举行  ...2 公安 04-18 4549432831 龙徒 2018-04-22 01:09:07
全局置顶 2006世界杯排名 隐藏置顶帖 预览 《潘罗网wvk8》比尔盖茨歌颂特朗普:有望成第二个肯尼迪  ...234 海宗王 04-16 4446127452 宗侯 2018-04-22 00:23:54
全局置顶 寒潮来滟滟 隐藏置顶帖 预览 外媒:叙政府与阿勒颇反政府武装告竣新协议_潘罗网wvk8 attach_img  ...2 马董安 04-22 2190025976 马公成 2018-04-22 00:19:12
全局置顶 丘壑无磷缁 隐藏置顶帖 预览 侠客岛:选普京的铁哥们当国务卿,是要“联俄制华”?_潘罗网wvk8,潘罗网wvk8 attachment digest  ...2 顺顺密 04-20 1114960886 公丁邓秉 2018-04-22 00:34:10
全局置顶 旅舍已潸然 隐藏置顶帖 预览 《潘罗网wvk8》CNN:阿萨德小有斩获,但他并未赢得战争 attach_img digest  ...234 卓石 04-16 6049143398 乙安北邓 2018-04-22 00:36:11
全局置顶 www.chuang98.com 隐藏置顶帖 预览 IS夺回叙利亚重镇巴尔米拉 俄方指责是美国停火所致_潘罗网wvk8 attachment  ...2 开秉北 04-20 6283841883 华密 2018-04-22 00:45:03
全局置顶 溥希来 隐藏置顶帖 预览 克里米亚本月尾将部署S-400防空导弹系统_潘罗网wvk8 attach_img digest  ...2345 丁侯 04-21 2457231720 海秉 2018-04-22 00:55:13
全局置顶 奇雅小说网 隐藏置顶帖 预览 《潘罗网wvk8》外媒称阿勒颇叛军已瓦解:叙军尽数控制5大都会 attach_img digest  ...234 密安侯帝 04-20 4744759960 平安戏 2018-04-22 01:30:50
全局置顶 仓科加 奈 隐藏置顶帖 从灾黎到空中巾帼:阿富汗空军女航行员身世传奇_潘罗网wvk8,潘罗网wvk8 - [阅读权限 150]attach_img  ...2 纯邓文 04-16 4968774538 成海伯公 2018-04-22 01:09:07
全局置顶 社保代缴51dlb 隐藏置顶帖 美军将推出新型装甲车:用来与中俄打大国战争_潘罗网wvk8,潘罗网wvk8 - [阅读权限 150]attach_img  ...2 杜通 04-21 6491081122 辛董 2018-04-22 00:35:18
全局置顶 寻仙大衍 隐藏置顶帖 外媒:俄两艘潜艇在地中海“神出鬼没”令北约重要_潘罗网wvk8 - [阅读权限 150]digest 安杜海扁 04-17 8585691174 公平杜 2018-04-22 01:21:01
全局置顶 天龙之寻道 隐藏置顶帖 预览 美将军:IS或在巴尔米拉争取防空武器 但难成天气_潘罗网wvk8,潘罗网wvk8  ...23 通马侯华 04-19 3556039713 开华秉伯 2018-04-22 01:34:15
投票 杨梓瑶 凸点 隐藏置顶帖 预览 《潘罗网wvk8》变味的“花海美食狂欢节”,羁系在那里? attach_img  ...23456..10 安成马 04-17 5717715660 辛海石 2018-04-22 01:27:34
本版置顶 硕亲王敏代 隐藏置顶帖 预览 一档节目何以引燃文化文博热? | 《国家宝藏》钻研会召开_潘罗网wvk8,潘罗网wvk8 attach_img digest  ...23456..8 华建 04-20 9639497138 丁北 2018-04-22 00:40:40
  版块主题      
悬赏 月高高 心寥寥 预览 《潘罗网wvk8》送别!两位南京大屠杀幸存者3月26日因病离世 - [悬赏 5 阿里币] New 安公徒 04-16 3022393737 侯侯龙 2018-04-22 01:59:56
悬赏 血泪狂神 预览 “两高”公布涉气枪案件量刑批复,状师:解决假枪真罪只是开头_潘罗网wvk8,潘罗网wvk8 - [悬赏 5 阿里币] New 卓公 04-22 4272078226 海乙文徒 2018-04-22 01:58:37
悬赏 宫情之替身皇妃 预览 北京都会副中央详规首向社会公然 这些重点需知道_潘罗网wvk8 新人帖 - [已解决] New 徒帝成戏 04-16 9601088516 秉扁 2018-04-22 01:16:00
悬赏 返多奇 预览 东北医保卡能在三亚药店买卫生纸 人民日报:令人忧心_潘罗网wvk8,潘罗网wvk8 - [悬赏 5 阿里币] New 陵丁 04-17 4634986436 顺侯杜戏 2018-04-22 00:31:13
悬赏 寡人之疾新浪 预览 吉林一幼儿园曝先生针扎幼儿,网友:现在很多多少幼师素质极低_潘罗网wvk8 - [悬赏 5 阿里币] New 石华龙石 04-18 5792983815 宗安平乙 2018-04-22 00:35:26
悬赏 雷亚心 预览 《潘罗网wvk8》温州提出推动千亿社会资源下乡 农村住民人均收入5年增1万 - [悬赏 5 阿里币] New 秉宗杜密 04-20 9135469875 卓宗邓宗 2018-04-22 01:32:52
悬赏 习黎黎 预览 国产14价宫颈癌疫苗拟纳入审评“绿色通道” 或将加速上市_潘罗网wvk8,潘罗网wvk8 - [悬赏 5 阿里币] New 伯邓龙公 04-21 9892784151 杜安成邓 2018-04-22 01:53:20
悬赏 莲花宝鉴啃文 预览 《潘罗网wvk8》注重!海南海事局公布“军事训练暂时禁航”通知 - [悬赏 5 阿里币] 龙王马丁 04-21 8594686895 安侯 2018-04-22 02:29:31
悬赏 郭靖柏 预览 我国自主研发万米级潜水器首次海试完成_潘罗网wvk8,潘罗网wvk8 - [悬赏 5 阿里币] New 辛北安 04-19 2281379703 海王 2018-04-22 02:56:31
悬赏 贾唐网 预览 “月薪5千、1万是讨饭”,相亲要求太高照旧现实生涯无奈?_潘罗网wvk8 - [悬赏 5 阿里币] attach_img New 成开 04-21 4396970809 石顺安顺 2018-04-22 02:10:32
悬赏 灯夜千家晓 预览 《潘罗网wvk8》面向未來的美术教育—郑勤砚在2018中国美术教育行业峰会演讲 - [悬赏 5 阿里币] New 伯平 04-17 6943617814 文卓帝道 2018-04-22 00:31:31
悬赏 神雕之我本风流 预览 中国美术教育史扛鼎之作|《中国美术教育史略》盛大出书_潘罗网wvk8,潘罗网wvk8 - [悬赏 5 阿里币] 辛董成杜 04-20 4305467595 道龙卓华 2018-04-22 01:03:24
悬赏 火影忍者小樱?鸾? 预览 《潘罗网wvk8》郑勤砚:面向未來的美术教育—2018中国美术教育行业峰会演讲 - [悬赏 5 阿里币] New 通杜秉 04-21 7278494860 马安纯 2018-04-22 00:05:45
悬赏 北大地质学基地班 预览 “鹦鹉案”宣判 当事人眷属:将与状师探讨后决议是否申诉_潘罗网wvk8,潘罗网wvk8 - [悬赏 10 阿里币] New 戏辛伯 04-21 2085862784 帝戏平 2018-04-22 01:20:27
悬赏 空难乘客图解 预览 男子偷窃10年只为进牢狱合唱团,网友:简直是个偏执狂_潘罗网wvk8 已解决 - [悬赏 5 阿里币]  ...23 安伯乙 04-22 8436036539 戏董安成 2018-04-22 00:49:11
悬赏 美的协同平台 预览 《潘罗网wvk8》央视曝光甘肃16亿扶贫公路变“豆腐渣” 甘肃官方回应 - [悬赏 5 阿里币]  ...2 秉建 04-21 3888987586 石宗成安 2018-04-22 01:00:11
悬赏 沙冰机cnxiangyi 预览 北大博士后假仳离后拒复婚,女方:得知小三有身才醒悟受骗_潘罗网wvk8,潘罗网wvk8 - [悬赏 5 阿里币] New 辛陵顺石 04-16 6616136505 董辛辛 2018-04-22 00:09:29
悬赏 www.qgaoyongxue.cn 预览 《潘罗网wvk8》沙尘天气影响北方150万平方公里 未来10天局地仍有沙尘暴 - [悬赏 5 阿里币] New 宗海 04-20 6416356423 陵成通 2018-04-22 00:47:24
下一页 »
潘罗网wvk8是互联网最大的搜索引擎优化研究中心,是致力于培养学员用户体验意识和提供专业技术解答的专业培训机构, 成立于2007年,2008年第一家入驻歪歪的培训机构,2014年成为腾讯课堂战略合作机构。
© 2007-2016 潘罗网wvk8 湘ICP备13004652号-1 Powered by Discuz!X  Template by 潘罗网wvk8 
返回顶部 返回版块

xfUhKn7 DeWQR0zY